createdAt,value
2016-11-28T00:00:46.380Z,0.60
2016-11-28T00:05:42.767Z,0.50
2016-11-28T00:10:39.849Z,0.46
2016-11-28T00:15:35.855Z,0.50
2016-11-28T00:20:32.320Z,0.39
2016-11-28T00:25:28.770Z,0.40
2016-11-28T00:30:24.980Z,0.41
2016-11-28T00:35:21.239Z,0.34
2016-11-28T00:40:17.498Z,0.26
2016-11-28T00:45:13.849Z,0.37
2016-11-28T00:50:10.098Z,0.28
2016-11-28T00:55:06.407Z,0.21
2016-11-28T01:00:03.818Z,0.08
2016-11-28T01:04:59.647Z,0.08
2016-11-28T01:09:55.909Z,0.07
2016-11-28T01:14:53.234Z,0.08
2016-11-28T01:19:49.572Z,-0.02
2016-11-28T01:24:45.969Z,0.04
2016-11-28T01:29:43.156Z,0.00
2016-11-28T01:34:39.514Z,-0.07
2016-11-28T01:39:35.935Z,0.03
2016-11-28T01:44:32.262Z,-0.11
2016-11-28T01:49:28.549Z,0.01
2016-11-28T01:54:24.723Z,-0.14
2016-11-28T01:59:20.993Z,-0.02
2016-11-28T02:04:17.263Z,-0.10
2016-11-28T02:09:13.630Z,-0.07
2016-11-28T02:14:09.941Z,-0.21
2016-11-28T02:19:06.252Z,-0.14
2016-11-28T02:24:02.676Z,-0.15
2016-11-28T02:28:59.106Z,-0.07
2016-11-28T02:33:55.514Z,-0.17
2016-11-28T02:38:51.732Z,-0.21
2016-11-28T02:43:48.802Z,-0.29
2016-11-28T02:48:45.070Z,-0.26
2016-11-28T02:53:41.347Z,-0.31
2016-11-28T02:58:37.635Z,-0.38
2016-11-28T03:03:33.824Z,-0.47
2016-11-28T03:08:30.161Z,-0.38
2016-11-28T03:13:27.263Z,-0.47
2016-11-28T03:18:23.793Z,-0.49
2016-11-28T03:23:20.169Z,-0.59
2016-11-28T03:28:16.400Z,-0.62
2016-11-28T03:33:13.387Z,-0.68
2016-11-28T03:38:09.736Z,-0.61
2016-11-28T03:43:05.962Z,-0.70
2016-11-28T03:48:02.356Z,-0.70
2016-11-28T03:52:58.641Z,-0.67
2016-11-28T03:57:55.636Z,-0.80
2016-11-28T04:02:52.679Z,-0.77
2016-11-28T04:07:48.898Z,-0.82
2016-11-28T04:12:45.129Z,-0.93
2016-11-28T04:17:41.411Z,-1.14
2016-11-28T04:22:37.939Z,-1.02
2016-11-28T04:27:34.255Z,-0.96
2016-11-28T04:32:30.532Z,-1.05
2016-11-28T04:37:26.846Z,-1.14
2016-11-28T04:42:22.962Z,-1.22
2016-11-28T04:47:19.373Z,-1.07
2016-11-28T04:52:15.686Z,-1.14
2016-11-28T04:57:12.752Z,-1.22
2016-11-28T05:02:09.126Z,-1.15
2016-11-28T05:07:05.536Z,-1.07
2016-11-28T05:12:01.725Z,-0.97
2016-11-28T05:16:58.226Z,-1.09
2016-11-28T05:21:54.375Z,-0.99
2016-11-28T05:26:50.665Z,-1.17
2016-11-28T05:31:46.867Z,-1.22
2016-11-28T05:36:43.162Z,-1.25
2016-11-28T05:41:40.147Z,-1.37
2016-11-28T05:46:36.445Z,-1.29
2016-11-28T05:51:32.793Z,-1.41
2016-11-28T05:56:29.142Z,-1.33
2016-11-28T06:01:25.440Z,-1.37
2016-11-28T06:06:21.788Z,-1.35
2016-11-28T06:11:18.880Z,-1.30
2016-11-28T06:16:15.536Z,-1.27
2016-11-28T06:21:11.895Z,-1.20
2016-11-28T06:26:08.239Z,-1.40
2016-11-28T06:31:04.481Z,-1.38
2016-11-28T06:36:01.182Z,-1.27
2016-11-28T06:40:57.695Z,-1.35
2016-11-28T06:45:53.842Z,-1.20
2016-11-28T06:50:50.158Z,-1.05
2016-11-28T06:55:46.521Z,-0.97
2016-11-28T07:00:44.106Z,-1.04
2016-11-28T07:05:40.254Z,-1.22
2016-11-28T07:10:36.597Z,-1.12
2016-11-28T07:15:33.007Z,-1.08
2016-11-28T07:20:29.367Z,-1.08
2016-11-28T07:25:25.814Z,-0.97
2016-11-28T07:30:22.633Z,-0.90
2016-11-28T07:35:19.132Z,-0.85
2016-11-28T07:40:15.531Z,-0.85
2016-11-28T07:45:11.872Z,-1.02
2016-11-28T07:50:08.109Z,-0.86
2016-11-28T07:55:05.479Z,-0.72
2016-11-28T08:00:01.481Z,-0.67
2016-11-28T08:04:57.492Z,-0.67
2016-11-28T08:09:55.447Z,-0.71
2016-11-28T08:14:51.773Z,-0.70
2016-11-28T08:19:49.290Z,-0.54
2016-11-28T08:24:45.929Z,-0.43
2016-11-28T08:29:42.583Z,-0.43
2016-11-28T08:34:38.956Z,-0.35
2016-11-28T08:39:35.512Z,-0.28
2016-11-28T08:44:32.405Z,-0.15
2016-11-28T08:49:29.098Z,-0.03
2016-11-28T08:54:26.065Z,0.08
2016-11-28T08:59:22.718Z,0.15
2016-11-28T09:04:19.722Z,0.26
2016-11-28T09:09:16.829Z,0.31
2016-11-28T09:14:14.270Z,0.70
2016-11-28T09:19:11.067Z,0.83
2016-11-28T09:24:07.757Z,0.92
2016-11-28T09:29:05.369Z,0.92
2016-11-28T09:34:03.725Z,1.05
2016-11-28T09:38:59.878Z,1.17
2016-11-28T09:43:56.577Z,1.22
2016-11-28T09:48:53.218Z,1.45
2016-11-28T09:53:50.347Z,1.67
2016-11-28T09:58:49.238Z,1.60
2016-11-28T10:03:46.301Z,1.84
2016-11-28T10:08:44.923Z,1.52
2016-11-28T10:13:40.554Z,1.70
2016-11-28T10:18:36.884Z,1.80
2016-11-28T10:23:33.116Z,1.77
2016-11-28T10:28:30.311Z,1.95
2016-11-28T10:33:26.478Z,2.06
2016-11-28T10:38:23.520Z,2.25
2016-11-28T10:43:20.490Z,2.65
2016-11-28T10:53:19.843Z,3.22
2016-11-28T10:58:16.628Z,3.44
2016-11-28T11:03:13.506Z,3.68
2016-11-28T11:08:10.579Z,4.19
2016-11-28T11:13:08.684Z,3.83
2016-11-28T11:18:04.925Z,4.20
2016-11-28T11:23:02.939Z,4.22
2016-11-28T11:27:59.061Z,4.17
2016-11-28T11:32:55.893Z,4.19
2016-11-28T11:37:52.243Z,4.41
2016-11-28T11:42:49.904Z,4.08
2016-11-28T11:47:49.523Z,3.84
2016-11-28T11:52:45.993Z,3.37
2016-11-28T11:57:42.239Z,3.19
2016-11-28T12:02:38.656Z,3.28
2016-11-28T12:07:35.058Z,3.25
2016-11-28T12:12:31.968Z,3.23
2016-11-28T12:17:29.236Z,3.34
2016-11-28T12:22:26.573Z,3.29
2016-11-28T12:32:25.655Z,3.22
2016-11-28T12:37:21.638Z,3.21
2016-11-28T12:42:18.420Z,3.26
2016-11-28T12:47:15.020Z,3.23
2016-11-28T12:52:11.118Z,3.26
2016-11-28T13:02:12.542Z,3.25
2016-11-28T13:07:09.078Z,3.26
2016-11-28T13:12:05.804Z,3.16
2016-11-28T13:17:02.111Z,3.22
2016-11-28T13:21:59.360Z,3.01
2016-11-28T13:26:56.753Z,3.03
2016-11-28T13:31:52.918Z,3.04
2016-11-28T13:36:49.417Z,3.01
2016-11-28T13:41:46.193Z,2.93
2016-11-28T13:46:43.364Z,3.08
2016-11-28T13:51:40.005Z,2.97
2016-11-28T13:56:37.474Z,2.87
2016-11-28T14:01:34.013Z,2.97
2016-11-28T14:06:31.560Z,2.85
2016-11-28T14:11:28.126Z,2.97
2016-11-28T14:16:24.874Z,2.97
2016-11-28T14:21:21.949Z,2.86
2016-11-28T14:26:18.499Z,2.79
2016-11-28T14:31:15.194Z,2.77
2016-11-28T14:36:11.886Z,2.67
2016-11-28T14:41:08.944Z,2.68
2016-11-28T14:46:05.291Z,2.65
2016-11-28T14:51:01.613Z,2.62
2016-11-28T14:55:59.403Z,2.44
2016-11-28T15:00:55.876Z,2.46
2016-11-28T15:05:52.528Z,2.32
2016-11-28T15:10:48.924Z,2.25
2016-11-28T15:15:47.356Z,2.25
2016-11-28T15:20:43.827Z,2.17
2016-11-28T15:25:40.097Z,2.08
2016-11-28T15:30:37.879Z,1.81
2016-11-28T15:35:33.898Z,1.52
2016-11-28T15:40:31.108Z,1.24
2016-11-28T15:45:27.017Z,1.04
2016-11-28T15:50:23.747Z,1.48
2016-11-28T15:55:20.620Z,1.45
2016-11-28T16:00:17.077Z,1.44
2016-11-28T16:05:14.032Z,1.38
2016-11-28T16:10:10.754Z,0.99
2016-11-28T16:15:07.310Z,0.76
2016-11-28T16:20:03.893Z,0.56
2016-11-28T16:25:00.811Z,0.62
2016-11-28T16:29:57.191Z,0.94
2016-11-28T16:34:54.453Z,0.86
2016-11-28T16:39:51.064Z,0.49
2016-11-28T16:44:47.126Z,0.44
2016-11-28T16:49:43.346Z,0.70
2016-11-28T16:54:39.767Z,0.52
2016-11-28T16:59:36.116Z,0.23
2016-11-28T17:04:32.946Z,0.05
2016-11-28T17:09:28.765Z,0.01
2016-11-28T17:14:25.076Z,0.31
2016-11-28T17:19:21.481Z,0.31
2016-11-28T17:24:18.984Z,0.01
2016-11-28T17:29:14.881Z,-0.07
2016-11-28T17:34:11.579Z,0.01
2016-11-28T17:39:07.591Z,-0.17
2016-11-28T17:44:03.968Z,-0.29
2016-11-28T17:49:00.437Z,-0.38
2016-11-28T17:53:57.531Z,-0.34
2016-11-28T17:58:54.093Z,-0.36
2016-11-28T18:03:50.351Z,-0.47
2016-11-28T18:08:47.191Z,-0.50
2016-11-28T18:13:44.035Z,-0.39
2016-11-28T18:18:40.497Z,-0.49
2016-11-28T18:23:36.748Z,-0.18
2016-11-28T18:28:32.936Z,0.00
2016-11-28T18:33:29.220Z,-0.15
2016-11-28T18:38:26.401Z,-0.11
2016-11-28T18:43:22.426Z,-0.23
2016-11-28T18:48:19.268Z,-0.21
2016-11-28T18:53:15.798Z,-0.25
2016-11-28T18:58:12.867Z,-0.39
2016-11-28T19:03:09.111Z,-0.43
2016-11-28T19:08:05.376Z,-0.35
2016-11-28T19:13:01.597Z,-0.34
2016-11-28T19:17:58.180Z,-0.41
2016-11-28T19:22:54.648Z,-0.47
2016-11-28T19:27:50.674Z,-0.61
2016-11-28T19:32:47.081Z,-0.64
2016-11-28T19:37:43.344Z,-0.64
2016-11-28T19:42:39.656Z,-0.71
2016-11-28T19:47:36.039Z,-0.72
2016-11-28T19:57:32.833Z,-0.78
2016-11-28T20:02:29.108Z,-0.94
2016-11-28T20:07:25.586Z,-1.02
2016-11-28T20:12:22.021Z,-1.05
2016-11-28T20:17:18.398Z,-1.02
2016-11-28T20:22:14.694Z,-1.12
2016-11-28T20:27:11.026Z,-1.07
2016-11-28T20:32:07.339Z,-1.04
2016-11-28T20:37:03.456Z,-1.22
2016-11-28T20:42:00.512Z,-1.27
2016-11-28T20:46:57.311Z,-1.15
2016-11-28T20:51:53.583Z,-1.30
2016-11-28T20:56:49.887Z,-1.32
2016-11-28T21:01:46.162Z,-1.37
2016-11-28T21:06:42.323Z,-1.37
2016-11-28T21:11:39.381Z,-1.30
2016-11-28T21:16:35.498Z,-1.38
2016-11-28T21:21:31.623Z,-1.32
2016-11-28T21:26:27.946Z,-1.30
2016-11-28T21:31:26.701Z,-1.50
2016-11-28T21:36:22.828Z,-1.76
2016-11-28T21:41:19.248Z,-1.82
2016-11-28T21:46:15.808Z,-1.62
2016-11-28T21:51:12.011Z,-1.50
2016-11-28T21:56:08.280Z,-1.37
2016-11-28T22:01:04.726Z,-1.62
2016-11-28T22:06:00.948Z,-1.74
2016-11-28T22:10:57.855Z,-1.87
2016-11-28T22:15:54.217Z,-1.71
2016-11-28T22:20:50.636Z,-2.00
2016-11-28T22:25:46.904Z,-2.05
2016-11-28T22:30:43.178Z,-2.08
2016-11-28T22:35:39.436Z,-2.10
2016-11-28T22:40:36.338Z,-1.90
2016-11-28T22:45:32.646Z,-1.82
2016-11-28T22:50:28.835Z,-1.94
2016-11-28T22:55:25.449Z,-2.02
2016-11-28T23:00:21.641Z,-1.98
2016-11-28T23:05:19.038Z,-1.94
2016-11-28T23:10:14.967Z,-2.07
2016-11-28T23:15:11.380Z,-2.13
2016-11-28T23:20:07.783Z,-2.21
2016-11-28T23:25:04.087Z,-2.07
2016-11-28T23:30:00.378Z,-2.22
2016-11-28T23:34:57.354Z,-2.19
2016-11-28T23:39:53.601Z,-2.26
2016-11-28T23:44:50.308Z,-2.30
2016-11-28T23:49:46.649Z,-2.30
2016-11-28T23:54:43.442Z,-2.35
2016-11-28T23:59:40.501Z,-2.34
